createdAt,value
2022-11-19T00:01:45.697Z,17.30
2022-11-19T00:06:48.108Z,19.48
2022-11-19T00:12:07.763Z,17.75
2022-11-19T00:17:11.566Z,17.98
2022-11-19T00:22:13.910Z,19.67
2022-11-19T00:27:16.383Z,19.52
2022-11-19T00:32:20.178Z,18.88
2022-11-19T00:37:22.626Z,20.15
2022-11-19T00:42:25.213Z,20.02
2022-11-19T00:47:29.016Z,20.13
2022-11-19T00:52:31.411Z,19.73
2022-11-19T00:57:33.841Z,20.48
2022-11-19T01:02:37.688Z,19.13
2022-11-19T01:07:40.128Z,21.65
2022-11-19T01:12:56.466Z,18.63
2022-11-19T01:18:00.176Z,18.10
2022-11-19T01:28:05.303Z,16.90
2022-11-19T01:33:09.556Z,16.63
2022-11-19T01:38:12.026Z,17.92
2022-11-19T01:43:14.685Z,18.67
2022-11-19T01:48:21.663Z,16.67
2022-11-19T01:53:25.724Z,17.33
2022-11-19T01:58:28.067Z,17.13
2022-11-19T02:03:32.994Z,16.77
2022-11-19T02:08:37.104Z,16.15
2022-11-19T02:13:41.868Z,15.73
2022-11-19T02:18:50.855Z,16.08
2022-11-19T02:24:00.502Z,16.27
2022-11-19T02:29:08.520Z,16.42
2022-11-19T02:34:13.818Z,13.77
2022-11-19T02:39:18.653Z,16.52
2022-11-19T02:44:41.362Z,16.80
2022-11-19T02:49:45.809Z,16.42
2022-11-19T02:54:48.250Z,15.18
2022-11-19T03:00:11.722Z,16.80
2022-11-19T03:05:16.648Z,15.52
2022-11-19T03:10:20.909Z,16.00
2022-11-19T03:15:46.543Z,15.90
2022-11-19T03:20:53.796Z,15.85
2022-11-19T03:25:58.644Z,15.60
2022-11-19T03:31:01.917Z,15.35
2022-11-19T03:36:08.974Z,15.93
2022-11-19T03:41:12.520Z,15.43
2022-11-19T03:46:16.565Z,15.48
2022-11-19T03:51:22.063Z,13.38
2022-11-19T03:56:27.072Z,15.20
2022-11-19T04:01:29.423Z,15.35
2022-11-19T04:06:33.451Z,14.38
2022-11-19T04:11:35.811Z,15.43
2022-11-19T04:16:38.208Z,14.05
2022-11-19T04:21:41.917Z,15.07
2022-11-19T04:31:46.631Z,15.48
2022-11-19T04:36:50.347Z,14.23
2022-11-19T04:46:54.930Z,13.38
2022-11-19T04:51:58.671Z,14.43
2022-11-19T05:02:03.277Z,15.30
2022-11-19T05:07:07.067Z,15.93
2022-11-19T05:12:09.469Z,14.85
2022-11-19T05:17:11.983Z,14.85
2022-11-19T05:22:15.658Z,14.52
2022-11-19T05:32:20.523Z,16.70
2022-11-19T05:37:24.498Z,15.77
2022-11-19T05:42:28.453Z,14.65
2022-11-19T05:47:31.741Z,16.30
2022-11-19T05:52:36.645Z,15.15
2022-11-19T05:57:39.178Z,16.58
2022-11-19T06:02:44.994Z,16.27
2022-11-19T06:07:48.838Z,14.77
2022-11-19T06:12:51.564Z,15.80
2022-11-19T06:17:54.089Z,14.97
2022-11-19T06:22:59.661Z,16.15
2022-11-19T06:28:02.137Z,16.33
2022-11-19T06:33:04.726Z,16.77
2022-11-19T06:38:08.641Z,17.27
2022-11-19T06:43:11.177Z,14.50
2022-11-19T06:48:13.679Z,17.23
2022-11-19T06:53:17.554Z,14.60
2022-11-19T06:58:20.230Z,16.35
2022-11-19T07:03:22.855Z,15.33
2022-11-19T07:08:26.625Z,14.23
2022-11-19T07:13:49.658Z,16.20
2022-11-19T07:18:52.057Z,13.55
2022-11-19T07:23:56.360Z,14.23
2022-11-19T07:29:04.407Z,14.20
2022-11-19T07:34:07.663Z,12.68
2022-11-19T07:39:11.412Z,12.60
2022-11-19T07:44:13.793Z,13.80
2022-11-19T07:49:16.368Z,13.27
2022-11-19T07:54:20.340Z,13.70
2022-11-19T07:59:22.951Z,13.23
2022-11-19T08:04:25.559Z,11.45
2022-11-19T08:09:29.448Z,11.70
2022-11-19T08:14:31.914Z,12.10
2022-11-19T08:19:34.488Z,10.48
2022-11-19T08:24:38.477Z,11.43
2022-11-19T08:29:41.017Z,11.00
2022-11-19T08:34:43.403Z,12.75
2022-11-19T08:39:47.247Z,13.20
2022-11-19T08:44:49.762Z,12.63
2022-11-19T08:49:52.166Z,13.05
2022-11-19T08:54:56.141Z,12.32
2022-11-19T09:00:04.450Z,12.77
2022-11-19T09:05:13.253Z,12.00
2022-11-19T09:10:18.698Z,12.00
2022-11-19T09:15:21.743Z,11.82
2022-11-19T09:20:24.138Z,10.40
2022-11-19T09:25:29.261Z,11.70
2022-11-19T09:30:31.753Z,10.02
2022-11-19T09:35:34.174Z,11.07
2022-11-19T09:40:38.064Z,9.90
2022-11-19T09:45:48.225Z,10.00
2022-11-19T09:50:53.998Z,9.60
2022-11-19T09:55:59.177Z,11.32
2022-11-19T10:01:01.744Z,10.02
2022-11-19T10:06:12.463Z,8.67
2022-11-19T10:11:29.148Z,9.23
2022-11-19T10:16:38.966Z,9.52
2022-11-19T10:21:44.926Z,8.32
2022-11-19T10:26:51.033Z,7.47
2022-11-19T10:31:53.671Z,7.72
2022-11-19T10:36:58.500Z,7.30
2022-11-19T10:42:09.623Z,7.97
2022-11-19T10:47:17.505Z,8.70
2022-11-19T10:52:24.702Z,10.73
2022-11-19T10:57:30.698Z,6.57
2022-11-19T11:02:38.175Z,7.18
2022-11-19T11:07:50.416Z,7.30
2022-11-19T11:13:12.193Z,6.70
2022-11-19T11:18:15.122Z,6.10
2022-11-19T11:23:19.126Z,6.18
2022-11-19T11:28:23.770Z,5.72
2022-11-19T11:33:27.791Z,5.85
2022-11-19T11:38:30.640Z,5.03
2022-11-19T11:43:35.605Z,5.82
2022-11-19T11:48:43.452Z,5.72
2022-11-19T11:53:46.012Z,5.18
2022-11-19T11:58:49.783Z,5.60
2022-11-19T12:03:55.272Z,5.10
2022-11-19T12:09:01.552Z,5.40
2022-11-19T12:14:10.938Z,5.10
2022-11-19T12:19:29.529Z,4.85
2022-11-19T12:24:37.901Z,4.95
2022-11-19T12:29:46.293Z,4.22
2022-11-19T12:35:04.644Z,4.90
2022-11-19T12:40:15.326Z,4.30
2022-11-19T12:45:23.548Z,4.63
2022-11-19T12:50:30.486Z,5.85
2022-11-19T12:55:37.642Z,5.65
2022-11-19T13:00:46.935Z,6.70
2022-11-19T13:05:51.805Z,6.22
2022-11-19T13:10:58.510Z,6.28
2022-11-19T13:16:05.086Z,6.13
2022-11-19T13:21:13.880Z,6.85
2022-11-19T13:26:17.783Z,6.38
2022-11-19T13:31:29.151Z,6.60
2022-11-19T13:36:34.272Z,6.30
2022-11-19T13:41:59.495Z,6.07
2022-11-19T13:47:03.429Z,7.35
2022-11-19T13:52:07.788Z,6.00
2022-11-19T13:57:23.500Z,6.18
2022-11-19T14:02:57.574Z,5.55
2022-11-19T14:08:09.894Z,5.15
2022-11-19T14:13:21.298Z,6.13
2022-11-19T14:18:47.119Z,6.63
2022-11-19T14:24:10.039Z,5.20
2022-11-19T14:29:47.206Z,4.88
2022-11-19T14:35:08.888Z,5.25
2022-11-19T14:40:14.977Z,5.03
2022-11-19T14:45:21.124Z,5.45
2022-11-19T14:50:27.396Z,4.82
2022-11-19T14:55:30.822Z,5.38
2022-11-19T15:00:34.670Z,4.70
2022-11-19T15:05:41.936Z,5.32
2022-11-19T15:10:48.492Z,4.32
2022-11-19T15:15:52.489Z,4.95
2022-11-19T15:21:08.295Z,4.65
2022-11-19T15:26:17.496Z,4.82
2022-11-19T15:31:25.037Z,4.00
2022-11-19T15:36:36.385Z,4.13
2022-11-19T15:41:41.461Z,3.80
2022-11-19T15:46:46.561Z,4.32
2022-11-19T15:51:57.298Z,4.53
2022-11-19T15:57:01.196Z,5.78
2022-11-19T16:02:04.921Z,6.57
2022-11-19T16:12:36.403Z,5.70
2022-11-19T16:17:43.799Z,6.63
2022-11-19T16:22:48.669Z,5.10
2022-11-19T16:27:55.149Z,5.53
2022-11-19T16:32:58.894Z,5.28
2022-11-19T16:38:02.249Z,6.25
2022-11-19T16:43:06.230Z,5.90
2022-11-19T16:48:29.358Z,7.53
2022-11-19T16:53:45.176Z,7.85
2022-11-19T16:58:48.974Z,8.55
2022-11-19T17:03:51.455Z,5.63
2022-11-19T17:08:57.858Z,5.47
2022-11-19T17:14:05.046Z,5.25
2022-11-19T17:19:14.997Z,7.55
2022-11-19T17:24:21.504Z,8.02
2022-11-19T17:29:27.907Z,6.70
2022-11-19T17:34:31.899Z,6.70
2022-11-19T17:39:34.333Z,8.32
2022-11-19T17:44:39.314Z,6.53
2022-11-19T17:49:42.083Z,6.00
2022-11-19T17:54:46.461Z,6.87
2022-11-19T17:59:50.285Z,6.65
2022-11-19T18:04:52.815Z,6.95
2022-11-19T18:09:55.321Z,9.57
2022-11-19T18:15:01.991Z,8.15
2022-11-19T18:20:05.106Z,10.60
2022-11-19T18:25:13.456Z,9.20
2022-11-19T18:30:17.448Z,17.20
2022-11-19T18:35:20.616Z,13.60
2022-11-19T18:40:23.128Z,11.82
2022-11-19T18:45:26.893Z,14.52
2022-11-19T18:50:30.367Z,18.23
2022-11-19T19:00:37.536Z,19.77
2022-11-19T19:05:40.193Z,25.38
2022-11-19T19:10:42.646Z,15.15
2022-11-19T19:15:46.760Z,15.10
2022-11-19T19:20:49.221Z,14.00
2022-11-19T19:25:51.716Z,17.55
2022-11-19T19:30:59.440Z,15.70
2022-11-19T19:36:03.004Z,16.48
2022-11-19T19:46:15.768Z,16.73
2022-11-19T19:51:19.154Z,15.50
2022-11-19T19:56:22.596Z,12.98
2022-11-19T20:01:27.238Z,15.13
2022-11-19T20:06:30.152Z,12.85
2022-11-19T20:11:32.874Z,12.10
2022-11-19T20:16:40.198Z,11.20
2022-11-19T20:21:42.859Z,15.90
2022-11-19T20:26:45.437Z,32.40
2022-11-19T20:31:49.452Z,30.27
2022-11-19T20:36:51.858Z,24.73
2022-11-19T20:42:12.100Z,20.65
2022-11-19T20:47:16.093Z,12.20
2022-11-19T20:52:21.392Z,14.43
2022-11-19T20:57:24.050Z,21.67
2022-11-19T21:02:29.184Z,25.20
2022-11-19T21:07:33.034Z,16.77
2022-11-19T21:12:36.476Z,20.67
2022-11-19T21:17:40.511Z,16.90
2022-11-19T21:22:47.955Z,14.57
2022-11-19T21:27:50.671Z,21.73
2022-11-19T21:32:55.010Z,26.63
2022-11-19T21:37:57.502Z,21.63
2022-11-19T21:42:59.940Z,19.00
2022-11-19T21:48:04.373Z,17.90
2022-11-19T21:53:07.332Z,19.35
2022-11-19T21:58:11.290Z,18.08
2022-11-19T22:03:15.412Z,21.92
2022-11-19T22:08:18.036Z,22.95
2022-11-19T22:13:20.458Z,20.17
2022-11-19T22:18:24.260Z,22.38
2022-11-19T22:23:26.746Z,25.05
2022-11-19T22:28:29.213Z,23.35
2022-11-19T22:33:33.495Z,18.25
2022-11-19T22:38:36.729Z,18.50
2022-11-19T22:43:39.886Z,17.65
2022-11-19T22:48:45.005Z,22.27
2022-11-19T22:53:47.554Z,20.13
2022-11-19T22:58:50.305Z,29.13
2022-11-19T23:03:54.824Z,22.90
2022-11-19T23:08:57.392Z,24.63
2022-11-19T23:13:59.796Z,21.33
2022-11-19T23:19:03.654Z,19.13
2022-11-19T23:24:06.185Z,19.73
2022-11-19T23:29:09.723Z,24.05
2022-11-19T23:39:16.540Z,21.02
2022-11-19T23:44:19.104Z,22.70
2022-11-19T23:49:21.862Z,20.10
2022-11-19T23:54:25.796Z,24.42
2022-11-19T23:59:28.703Z,26.35
